sensor_id;sensor_type;location;lat;lon;timestamp;P1;durP1;ratioP1;P2;durP2;ratioP2
76576;SDS011;65441;44.748;37.600;2024-02-14T00:00:20;5.57;;;2.30;;
76576;SDS011;65441;44.748;37.600;2024-02-14T00:02:51;9.70;;;2.65;;
76576;SDS011;65441;44.748;37.600;2024-02-14T00:05:19;9.38;;;2.95;;
76576;SDS011;65441;44.748;37.600;2024-02-14T00:07:47;6.97;;;2.85;;
76576;SDS011;65441;44.748;37.600;2024-02-14T00:10:15;7.55;;;3.00;;
76576;SDS011;65441;44.748;37.600;2024-02-14T00:12:45;15.88;;;3.40;;
76576;SDS011;65441;44.748;37.600;2024-02-14T00:15:14;8.50;;;2.95;;
76576;SDS011;65441;44.748;37.600;2024-02-14T00:17:42;10.93;;;3.08;;
76576;SDS011;65441;44.748;37.600;2024-02-14T00:20:10;7.18;;;2.63;;
76576;SDS011;65441;44.748;37.600;2024-02-14T00:22:48;7.25;;;2.90;;
76576;SDS011;65441;44.748;37.600;2024-02-14T00:25:17;11.23;;;3.22;;
76576;SDS011;65441;44.748;37.600;2024-02-14T00:27:49;8.95;;;3.22;;
76576;SDS011;65441;44.748;37.600;2024-02-14T00:30:18;7.70;;;3.08;;
76576;SDS011;65441;44.748;37.600;2024-02-14T00:33:09;7.25;;;2.97;;
76576;SDS011;65441;44.748;37.600;2024-02-14T00:35:37;7.80;;;3.25;;
76576;SDS011;65441;44.748;37.600;2024-02-14T00:38:05;11.32;;;3.50;;
76576;SDS011;65441;44.748;37.600;2024-02-14T00:40:34;10.82;;;3.30;;
76576;SDS011;65441;44.748;37.600;2024-02-14T00:43:04;8.05;;;3.45;;
76576;SDS011;65441;44.748;37.600;2024-02-14T00:45:32;8.27;;;3.38;;
76576;SDS011;65441;44.748;37.600;2024-02-14T00:48:01;8.93;;;2.67;;
76576;SDS011;65441;44.748;37.600;2024-02-14T00:50:29;7.00;;;2.60;;
76576;SDS011;65441;44.748;37.600;2024-02-14T00:52:57;6.22;;;2.63;;
76576;SDS011;65441;44.748;37.600;2024-02-14T00:55:26;7.50;;;3.10;;
76576;SDS011;65441;44.748;37.600;2024-02-14T00:57:54;11.85;;;3.20;;
76576;SDS011;65441;44.748;37.600;2024-02-14T01:00:24;10.65;;;2.88;;
76576;SDS011;65441;44.748;37.600;2024-02-14T01:02:52;7.97;;;3.03;;
76576;SDS011;65441;44.748;37.600;2024-02-14T01:05:22;6.35;;;2.60;;
76576;SDS011;65441;44.748;37.600;2024-02-14T01:07:51;6.80;;;2.78;;
76576;SDS011;65441;44.748;37.600;2024-02-14T01:10:20;9.48;;;2.67;;
76576;SDS011;65441;44.748;37.600;2024-02-14T01:12:48;11.27;;;3.10;;
76576;SDS011;65441;44.748;37.600;2024-02-14T01:15:16;9.88;;;3.08;;
76576;SDS011;65441;44.748;37.600;2024-02-14T01:17:46;10.05;;;2.80;;
76576;SDS011;65441;44.748;37.600;2024-02-14T01:20:14;6.53;;;2.65;;
76576;SDS011;65441;44.748;37.600;2024-02-14T01:22:43;7.20;;;2.83;;
76576;SDS011;65441;44.748;37.600;2024-02-14T01:25:21;7.30;;;2.92;;
76576;SDS011;65441;44.748;37.600;2024-02-14T01:27:50;10.55;;;2.78;;
76576;SDS011;65441;44.748;37.600;2024-02-14T01:30:18;6.78;;;2.70;;
76576;SDS011;65441;44.748;37.600;2024-02-14T01:32:48;7.07;;;2.88;;
76576;SDS011;65441;44.748;37.600;2024-02-14T01:35:16;8.32;;;2.88;;
76576;SDS011;65441;44.748;37.600;2024-02-14T01:37:44;6.03;;;2.55;;
76576;SDS011;65441;44.748;37.600;2024-02-14T01:40:13;6.93;;;2.70;;
76576;SDS011;65441;44.748;37.600;2024-02-14T01:42:52;10.98;;;3.03;;
76576;SDS011;65441;44.748;37.600;2024-02-14T01:45:21;8.98;;;2.53;;
76576;SDS011;65441;44.748;37.600;2024-02-14T01:48:02;7.22;;;2.70;;
76576;SDS011;65441;44.748;37.600;2024-02-14T01:50:32;9.25;;;2.25;;
76576;SDS011;65441;44.748;37.600;2024-02-14T01:53:01;7.13;;;2.47;;
76576;SDS011;65441;44.748;37.600;2024-02-14T01:55:30;8.18;;;2.50;;
76576;SDS011;65441;44.748;37.600;2024-02-14T01:57:59;7.75;;;2.78;;
76576;SDS011;65441;44.748;37.600;2024-02-14T02:00:29;9.02;;;2.83;;
76576;SDS011;65441;44.748;37.600;2024-02-14T02:03:02;8.73;;;3.00;;
76576;SDS011;65441;44.748;37.600;2024-02-14T02:05:31;11.18;;;2.70;;
76576;SDS011;65441;44.748;37.600;2024-02-14T02:07:59;6.75;;;2.30;;
76576;SDS011;65441;44.748;37.600;2024-02-14T02:10:28;8.52;;;2.88;;
76576;SDS011;65441;44.748;37.600;2024-02-14T02:13:16;8.10;;;2.63;;
76576;SDS011;65441;44.748;37.600;2024-02-14T02:16:06;6.78;;;2.03;;
76576;SDS011;65441;44.748;37.600;2024-02-14T02:18:56;6.82;;;2.40;;
76576;SDS011;65441;44.748;37.600;2024-02-14T02:21:44;6.40;;;2.65;;
76576;SDS011;65441;44.748;37.600;2024-02-14T02:24:14;6.60;;;2.38;;
76576;SDS011;65441;44.748;37.600;2024-02-14T02:26:42;6.63;;;2.40;;
76576;SDS011;65441;44.748;37.600;2024-02-14T02:29:31;8.23;;;2.50;;
76576;SDS011;65441;44.748;37.600;2024-02-14T02:32:00;6.05;;;2.50;;
76576;SDS011;65441;44.748;37.600;2024-02-14T02:34:28;6.75;;;2.55;;
76576;SDS011;65441;44.748;37.600;2024-02-14T02:36:56;7.57;;;2.50;;
76576;SDS011;65441;44.748;37.600;2024-02-14T02:39:45;10.95;;;2.65;;
76576;SDS011;65441;44.748;37.600;2024-02-14T02:42:33;6.35;;;2.70;;
76576;SDS011;65441;44.748;37.600;2024-02-14T02:45:21;7.55;;;2.60;;
76576;SDS011;65441;44.748;37.600;2024-02-14T02:48:10;8.98;;;2.65;;
76576;SDS011;65441;44.748;37.600;2024-02-14T02:50:57;9.07;;;2.65;;
76576;SDS011;65441;44.748;37.600;2024-02-14T02:53:44;11.88;;;3.20;;
76576;SDS011;65441;44.748;37.600;2024-02-14T02:56:33;8.13;;;2.67;;
76576;SDS011;65441;44.748;37.600;2024-02-14T02:59:01;9.88;;;2.70;;
76576;SDS011;65441;44.748;37.600;2024-02-14T03:01:34;7.45;;;2.85;;
76576;SDS011;65441;44.748;37.600;2024-02-14T03:04:23;9.20;;;2.88;;
76576;SDS011;65441;44.748;37.600;2024-02-14T03:07:11;7.45;;;2.60;;
76576;SDS011;65441;44.748;37.600;2024-02-14T03:10:00;6.30;;;2.67;;
76576;SDS011;65441;44.748;37.600;2024-02-14T03:12:51;11.23;;;3.28;;
76576;SDS011;65441;44.748;37.600;2024-02-14T03:15:41;9.88;;;2.90;;
76576;SDS011;65441;44.748;37.600;2024-02-14T03:18:09;9.88;;;2.95;;
76576;SDS011;65441;44.748;37.600;2024-02-14T03:20:38;12.00;;;3.25;;
76576;SDS011;65441;44.748;37.600;2024-02-14T03:23:06;13.38;;;3.38;;
76576;SDS011;65441;44.748;37.600;2024-02-14T03:25:35;10.20;;;3.17;;
76576;SDS011;65441;44.748;37.600;2024-02-14T03:28:05;17.85;;;3.08;;
76576;SDS011;65441;44.748;37.600;2024-02-14T03:30:35;10.85;;;2.60;;
76576;SDS011;65441;44.748;37.600;2024-02-14T03:33:05;9.68;;;2.95;;
76576;SDS011;65441;44.748;37.600;2024-02-14T03:35:35;8.07;;;3.10;;
76576;SDS011;65441;44.748;37.600;2024-02-14T03:38:03;10.43;;;2.85;;
76576;SDS011;65441;44.748;37.600;2024-02-14T03:40:35;11.27;;;3.00;;
76576;SDS011;65441;44.748;37.600;2024-02-14T03:43:05;10.75;;;3.25;;
76576;SDS011;65441;44.748;37.600;2024-02-14T03:45:38;7.43;;;3.28;;
76576;SDS011;65441;44.748;37.600;2024-02-14T03:48:06;11.68;;;3.30;;
76576;SDS011;65441;44.748;37.600;2024-02-14T03:50:36;8.20;;;3.28;;
76576;SDS011;65441;44.748;37.600;2024-02-14T03:53:06;8.68;;;3.10;;
76576;SDS011;65441;44.748;37.600;2024-02-14T03:55:34;11.30;;;3.13;;
76576;SDS011;65441;44.748;37.600;2024-02-14T03:58:02;11.40;;;3.70;;
76576;SDS011;65441;44.748;37.600;2024-02-14T04:00:33;9.38;;;3.30;;
76576;SDS011;65441;44.748;37.600;2024-02-14T04:03:01;7.45;;;3.10;;
76576;SDS011;65441;44.748;37.600;2024-02-14T04:05:29;7.07;;;3.33;;
76576;SDS011;65441;44.748;37.600;2024-02-14T04:07:57;8.18;;;3.38;;
76576;SDS011;65441;44.748;37.600;2024-02-14T04:10:26;11.27;;;3.40;;
76576;SDS011;65441;44.748;37.600;2024-02-14T04:12:54;8.43;;;3.30;;
76576;SDS011;65441;44.748;37.600;2024-02-14T04:15:22;8.77;;;2.60;;
76576;SDS011;65441;44.748;37.600;2024-02-14T04:17:56;7.90;;;2.67;;
76576;SDS011;65441;44.748;37.600;2024-02-14T04:20:26;14.68;;;3.25;;
76576;SDS011;65441;44.748;37.600;2024-02-14T04:22:54;11.27;;;2.92;;
76576;SDS011;65441;44.748;37.600;2024-02-14T04:25:24;10.23;;;2.88;;
76576;SDS011;65441;44.748;37.600;2024-02-14T04:27:52;9.60;;;2.65;;
76576;SDS011;65441;44.748;37.600;2024-02-14T04:30:21;16.42;;;3.33;;
76576;SDS011;65441;44.748;37.600;2024-02-14T04:33:06;19.88;;;3.28;;
76576;SDS011;65441;44.748;37.600;2024-02-14T04:35:35;19.27;;;3.45;;
76576;SDS011;65441;44.748;37.600;2024-02-14T04:38:03;13.43;;;3.03;;
76576;SDS011;65441;44.748;37.600;2024-02-14T04:40:32;14.13;;;3.55;;
76576;SDS011;65441;44.748;37.600;2024-02-14T04:43:00;21.92;;;3.72;;
76576;SDS011;65441;44.748;37.600;2024-02-14T04:45:29;14.75;;;3.92;;
76576;SDS011;65441;44.748;37.600;2024-02-14T04:48:02;9.20;;;2.92;;
76576;SDS011;65441;44.748;37.600;2024-02-14T04:50:32;10.75;;;2.90;;
76576;SDS011;65441;44.748;37.600;2024-02-14T04:53:00;30.05;;;3.45;;
76576;SDS011;65441;44.748;37.600;2024-02-14T04:55:29;21.25;;;2.92;;
76576;SDS011;65441;44.748;37.600;2024-02-14T04:57:57;22.17;;;3.10;;
76576;SDS011;65441;44.748;37.600;2024-02-14T05:00:25;16.52;;;3.38;;
76576;SDS011;65441;44.748;37.600;2024-02-14T05:02:54;18.92;;;4.10;;
76576;SDS011;65441;44.748;37.600;2024-02-14T05:05:23;16.92;;;3.35;;
76576;SDS011;65441;44.748;37.600;2024-02-14T05:07:59;12.27;;;3.70;;
76576;SDS011;65441;44.748;37.600;2024-02-14T05:10:28;13.13;;;4.00;;
76576;SDS011;65441;44.748;37.600;2024-02-14T05:12:57;20.88;;;3.88;;
76576;SDS011;65441;44.748;37.600;2024-02-14T05:15:25;12.23;;;3.22;;
76576;SDS011;65441;44.748;37.600;2024-02-14T05:17:53;14.68;;;3.25;;
76576;SDS011;65441;44.748;37.600;2024-02-14T05:20:22;10.68;;;3.28;;
76576;SDS011;65441;44.748;37.600;2024-02-14T05:22:50;12.57;;;3.45;;
76576;SDS011;65441;44.748;37.600;2024-02-14T05:25:20;11.73;;;3.70;;
76576;SDS011;65441;44.748;37.600;2024-02-14T05:27:55;9.45;;;3.45;;
76576;SDS011;65441;44.748;37.600;2024-02-14T05:30:24;15.45;;;3.80;;
76576;SDS011;65441;44.748;37.600;2024-02-14T05:33:02;17.20;;;3.80;;
76576;SDS011;65441;44.748;37.600;2024-02-14T05:35:31;18.70;;;3.88;;
76576;SDS011;65441;44.748;37.600;2024-02-14T05:37:59;13.35;;;3.38;;
76576;SDS011;65441;44.748;37.600;2024-02-14T05:40:29;8.93;;;3.28;;
76576;SDS011;65441;44.748;37.600;2024-02-14T05:42:57;11.60;;;3.58;;
76576;SDS011;65441;44.748;37.600;2024-02-14T05:45:26;10.02;;;3.20;;
76576;SDS011;65441;44.748;37.600;2024-02-14T05:47:54;10.75;;;3.20;;
76576;SDS011;65441;44.748;37.600;2024-02-14T05:50:22;12.07;;;3.00;;
76576;SDS011;65441;44.748;37.600;2024-02-14T05:52:50;10.07;;;3.17;;
76576;SDS011;65441;44.748;37.600;2024-02-14T05:55:18;12.25;;;3.15;;
76576;SDS011;65441;44.748;37.600;2024-02-14T05:57:52;10.43;;;3.25;;
76576;SDS011;65441;44.748;37.600;2024-02-14T06:00:20;9.82;;;2.70;;
76576;SDS011;65441;44.748;37.600;2024-02-14T06:02:48;10.27;;;3.30;;
76576;SDS011;65441;44.748;37.600;2024-02-14T06:05:17;7.43;;;2.50;;
76576;SDS011;65441;44.748;37.600;2024-02-14T06:07:45;24.83;;;10.70;;
76576;SDS011;65441;44.748;37.600;2024-02-14T06:10:13;10.95;;;4.25;;
76576;SDS011;65441;44.748;37.600;2024-02-14T06:12:42;13.77;;;4.28;;
76576;SDS011;65441;44.748;37.600;2024-02-14T06:15:11;15.93;;;4.95;;
76576;SDS011;65441;44.748;37.600;2024-02-14T06:17:40;12.35;;;4.05;;
76576;SDS011;65441;44.748;37.600;2024-02-14T06:20:08;18.92;;;5.93;;
76576;SDS011;65441;44.748;37.600;2024-02-14T06:22:38;9.48;;;3.53;;
76576;SDS011;65441;44.748;37.600;2024-02-14T06:25:07;8.45;;;3.63;;
76576;SDS011;65441;44.748;37.600;2024-02-14T06:27:48;8.90;;;2.97;;
76576;SDS011;65441;44.748;37.600;2024-02-14T06:30:18;7.25;;;2.53;;
76576;SDS011;65441;44.748;37.600;2024-02-14T06:32:47;12.70;;;2.22;;
76576;SDS011;65441;44.748;37.600;2024-02-14T06:35:15;6.97;;;2.85;;
76576;SDS011;65441;44.748;37.600;2024-02-14T06:37:44;17.30;;;4.78;;
76576;SDS011;65441;44.748;37.600;2024-02-14T06:40:13;13.23;;;5.28;;
76576;SDS011;65441;44.748;37.600;2024-02-14T06:42:42;15.73;;;6.22;;
76576;SDS011;65441;44.748;37.600;2024-02-14T06:45:10;18.20;;;9.23;;
76576;SDS011;65441;44.748;37.600;2024-02-14T06:47:40;18.13;;;7.13;;
76576;SDS011;65441;44.748;37.600;2024-02-14T06:50:08;10.55;;;3.75;;
76576;SDS011;65441;44.748;37.600;2024-02-14T06:52:37;12.93;;;4.40;;
76576;SDS011;65441;44.748;37.600;2024-02-14T06:55:05;9.73;;;4.88;;
76576;SDS011;65441;44.748;37.600;2024-02-14T06:57:34;10.23;;;4.80;;
76576;SDS011;65441;44.748;37.600;2024-02-14T07:00:02;14.10;;;5.82;;
76576;SDS011;65441;44.748;37.600;2024-02-14T07:02:35;9.50;;;3.65;;
76576;SDS011;65441;44.748;37.600;2024-02-14T07:05:05;14.32;;;5.25;;
76576;SDS011;65441;44.748;37.600;2024-02-14T07:07:38;7.15;;;3.38;;
76576;SDS011;65441;44.748;37.600;2024-02-14T07:10:07;8.10;;;3.33;;
76576;SDS011;65441;44.748;37.600;2024-02-14T07:12:36;9.70;;;3.97;;
76576;SDS011;65441;44.748;37.600;2024-02-14T07:15:05;12.45;;;3.83;;
76576;SDS011;65441;44.748;37.600;2024-02-14T07:17:35;10.85;;;3.92;;
76576;SDS011;65441;44.748;37.600;2024-02-14T07:20:06;9.00;;;3.47;;
76576;SDS011;65441;44.748;37.600;2024-02-14T07:22:35;10.40;;;3.33;;
76576;SDS011;65441;44.748;37.600;2024-02-14T07:25:04;13.38;;;3.47;;
76576;SDS011;65441;44.748;37.600;2024-02-14T07:27:34;11.70;;;4.95;;
76576;SDS011;65441;44.748;37.600;2024-02-14T07:30:02;13.77;;;3.90;;
76576;SDS011;65441;44.748;37.600;2024-02-14T07:32:32;10.73;;;3.50;;
76576;SDS011;65441;44.748;37.600;2024-02-14T07:35:02;9.18;;;3.70;;
76576;SDS011;65441;44.748;37.600;2024-02-14T07:37:34;13.95;;;4.50;;
76576;SDS011;65441;44.748;37.600;2024-02-14T07:40:03;13.23;;;3.75;;
76576;SDS011;65441;44.748;37.600;2024-02-14T07:42:35;9.23;;;4.13;;
76576;SDS011;65441;44.748;37.600;2024-02-14T07:45:04;14.73;;;4.30;;
76576;SDS011;65441;44.748;37.600;2024-02-14T07:47:33;16.05;;;4.95;;
76576;SDS011;65441;44.748;37.600;2024-02-14T07:50:01;16.20;;;4.60;;
76576;SDS011;65441;44.748;37.600;2024-02-14T07:52:30;12.40;;;4.80;;
76576;SDS011;65441;44.748;37.600;2024-02-14T07:55:00;11.75;;;4.00;;
76576;SDS011;65441;44.748;37.600;2024-02-14T07:57:29;8.05;;;3.10;;
76576;SDS011;65441;44.748;37.600;2024-02-14T07:59:57;15.73;;;3.47;;
76576;SDS011;65441;44.748;37.600;2024-02-14T08:02:25;7.65;;;2.80;;
76576;SDS011;65441;44.748;37.600;2024-02-14T08:04:55;9.82;;;4.07;;
76576;SDS011;65441;44.748;37.600;2024-02-14T08:07:23;6.90;;;2.75;;
76576;SDS011;65441;44.748;37.600;2024-02-14T08:09:51;10.98;;;3.05;;
76576;SDS011;65441;44.748;37.600;2024-02-14T08:12:21;11.68;;;3.10;;
76576;SDS011;65441;44.748;37.600;2024-02-14T08:14:51;10.85;;;3.30;;
76576;SDS011;65441;44.748;37.600;2024-02-14T08:17:20;9.85;;;3.28;;
76576;SDS011;65441;44.748;37.600;2024-02-14T08:19:48;10.57;;;3.28;;
76576;SDS011;65441;44.748;37.600;2024-02-14T08:22:16;11.00;;;2.85;;
76576;SDS011;65441;44.748;37.600;2024-02-14T08:24:44;13.63;;;3.97;;
76576;SDS011;65441;44.748;37.600;2024-02-14T08:27:13;9.07;;;2.90;;
76576;SDS011;65441;44.748;37.600;2024-02-14T08:29:42;8.55;;;2.83;;
76576;SDS011;65441;44.748;37.600;2024-02-14T08:32:10;11.32;;;3.00;;
76576;SDS011;65441;44.748;37.600;2024-02-14T08:34:39;19.00;;;4.90;;
76576;SDS011;65441;44.748;37.600;2024-02-14T08:37:07;12.25;;;4.15;;
76576;SDS011;65441;44.748;37.600;2024-02-14T08:39:36;6.93;;;2.60;;
76576;SDS011;65441;44.748;37.600;2024-02-14T08:42:05;8.95;;;3.30;;
76576;SDS011;65441;44.748;37.600;2024-02-14T08:44:34;8.73;;;3.58;;
76576;SDS011;65441;44.748;37.600;2024-02-14T08:47:06;12.23;;;4.15;;
76576;SDS011;65441;44.748;37.600;2024-02-14T08:49:35;16.33;;;5.82;;
76576;SDS011;65441;44.748;37.600;2024-02-14T08:52:04;10.98;;;3.53;;
76576;SDS011;65441;44.748;37.600;2024-02-14T08:54:33;8.70;;;3.05;;
76576;SDS011;65441;44.748;37.600;2024-02-14T08:57:01;10.40;;;3.30;;
76576;SDS011;65441;44.748;37.600;2024-02-14T08:59:29;13.38;;;4.10;;
76576;SDS011;65441;44.748;37.600;2024-02-14T09:02:00;9.98;;;3.70;;
76576;SDS011;65441;44.748;37.600;2024-02-14T09:04:30;12.10;;;4.47;;
76576;SDS011;65441;44.748;37.600;2024-02-14T09:06:59;9.90;;;3.45;;
76576;SDS011;65441;44.748;37.600;2024-02-14T09:09:30;9.60;;;3.47;;
76576;SDS011;65441;44.748;37.600;2024-02-14T09:11:58;11.45;;;3.17;;
76576;SDS011;65441;44.748;37.600;2024-02-14T09:14:28;8.25;;;2.72;;
76576;SDS011;65441;44.748;37.600;2024-02-14T09:16:56;8.82;;;3.60;;
76576;SDS011;65441;44.748;37.600;2024-02-14T09:19:25;8.73;;;3.60;;
76576;SDS011;65441;44.748;37.600;2024-02-14T09:21:54;7.80;;;3.35;;
76576;SDS011;65441;44.748;37.600;2024-02-14T09:24:23;9.00;;;2.97;;
76576;SDS011;65441;44.748;37.600;2024-02-14T09:26:51;15.85;;;5.45;;
76576;SDS011;65441;44.748;37.600;2024-02-14T09:29:19;13.15;;;4.10;;
76576;SDS011;65441;44.748;37.600;2024-02-14T09:31:47;7.82;;;3.33;;
76576;SDS011;65441;44.748;37.600;2024-02-14T09:34:17;9.77;;;3.92;;
76576;SDS011;65441;44.748;37.600;2024-02-14T09:36:47;15.15;;;3.95;;
76576;SDS011;65441;44.748;37.600;2024-02-14T09:39:18;15.32;;;4.30;;
76576;SDS011;65441;44.748;37.600;2024-02-14T09:41:46;25.13;;;6.60;;
76576;SDS011;65441;44.748;37.600;2024-02-14T09:44:20;12.43;;;4.07;;
76576;SDS011;65441;44.748;37.600;2024-02-14T09:46:49;7.43;;;2.60;;
76576;SDS011;65441;44.748;37.600;2024-02-14T09:49:18;9.20;;;3.30;;
76576;SDS011;65441;44.748;37.600;2024-02-14T09:51:47;11.45;;;4.68;;
76576;SDS011;65441;44.748;37.600;2024-02-14T09:54:17;11.63;;;3.55;;
76576;SDS011;65441;44.748;37.600;2024-02-14T09:56:48;8.10;;;3.00;;
76576;SDS011;65441;44.748;37.600;2024-02-14T09:59:20;8.13;;;2.80;;
76576;SDS011;65441;44.748;37.600;2024-02-14T10:01:50;6.95;;;2.60;;
76576;SDS011;65441;44.748;37.600;2024-02-14T10:04:18;10.98;;;3.03;;
76576;SDS011;65441;44.748;37.600;2024-02-14T10:06:48;18.65;;;7.05;;
76576;SDS011;65441;44.748;37.600;2024-02-14T10:09:19;17.70;;;5.32;;
76576;SDS011;65441;44.748;37.600;2024-02-14T10:11:48;6.80;;;2.92;;
76576;SDS011;65441;44.748;37.600;2024-02-14T10:14:17;7.13;;;3.08;;
76576;SDS011;65441;44.748;37.600;2024-02-14T10:16:45;7.03;;;2.67;;
76576;SDS011;65441;44.748;37.600;2024-02-14T10:19:16;5.60;;;2.58;;
76576;SDS011;65441;44.748;37.600;2024-02-14T10:21:54;7.70;;;3.50;;
76576;SDS011;65441;44.748;37.600;2024-02-14T10:24:25;8.88;;;3.85;;
76576;SDS011;65441;44.748;37.600;2024-02-14T10:26:54;6.35;;;2.58;;
76576;SDS011;65441;44.748;37.600;2024-02-14T10:29:23;10.20;;;2.83;;
76576;SDS011;65441;44.748;37.600;2024-02-14T10:31:53;7.60;;;2.88;;
76576;SDS011;65441;44.748;37.600;2024-02-14T10:34:24;8.25;;;3.15;;
76576;SDS011;65441;44.748;37.600;2024-02-14T10:36:53;7.10;;;3.08;;
76576;SDS011;65441;44.748;37.600;2024-02-14T10:39:25;6.93;;;3.03;;
76576;SDS011;65441;44.748;37.600;2024-02-14T10:41:54;6.30;;;2.50;;
76576;SDS011;65441;44.748;37.600;2024-02-14T10:44:22;7.97;;;2.80;;
76576;SDS011;65441;44.748;37.600;2024-02-14T10:46:50;8.02;;;2.70;;
76576;SDS011;65441;44.748;37.600;2024-02-14T10:49:23;8.90;;;3.45;;
76576;SDS011;65441;44.748;37.600;2024-02-14T10:51:55;8.55;;;2.92;;
76576;SDS011;65441;44.748;37.600;2024-02-14T10:54:30;7.93;;;2.47;;
76576;SDS011;65441;44.748;37.600;2024-02-14T10:56:58;10.45;;;3.55;;
76576;SDS011;65441;44.748;37.600;2024-02-14T10:59:38;9.93;;;3.40;;
76576;SDS011;65441;44.748;37.600;2024-02-14T11:02:11;8.57;;;2.88;;
76576;SDS011;65441;44.748;37.600;2024-02-14T11:04:40;6.85;;;2.67;;
76576;SDS011;65441;44.748;37.600;2024-02-14T11:07:08;7.72;;;3.13;;
76576;SDS011;65441;44.748;37.600;2024-02-14T11:09:39;6.93;;;2.72;;
76576;SDS011;65441;44.748;37.600;2024-02-14T11:12:08;6.50;;;2.85;;
76576;SDS011;65441;44.748;37.600;2024-02-14T11:14:37;10.43;;;2.95;;
76576;SDS011;65441;44.748;37.600;2024-02-14T11:17:12;9.60;;;3.00;;
76576;SDS011;65441;44.748;37.600;2024-02-14T11:19:40;6.20;;;2.60;;
76576;SDS011;65441;44.748;37.600;2024-02-14T11:22:11;8.00;;;3.03;;
76576;SDS011;65441;44.748;37.600;2024-02-14T11:24:41;9.50;;;2.75;;
76576;SDS011;65441;44.748;37.600;2024-02-14T11:27:12;9.85;;;3.13;;
76576;SDS011;65441;44.748;37.600;2024-02-14T11:29:50;11.63;;;3.08;;
76576;SDS011;65441;44.748;37.600;2024-02-14T11:32:21;7.32;;;2.58;;
76576;SDS011;65441;44.748;37.600;2024-02-14T11:34:53;8.07;;;2.63;;
76576;SDS011;65441;44.748;37.600;2024-02-14T11:37:27;7.03;;;2.88;;
76576;SDS011;65441;44.748;37.600;2024-02-14T11:39:57;9.35;;;3.15;;
76576;SDS011;65441;44.748;37.600;2024-02-14T11:42:27;10.75;;;2.97;;
76576;SDS011;65441;44.748;37.600;2024-02-14T11:44:57;10.40;;;3.20;;
76576;SDS011;65441;44.748;37.600;2024-02-14T11:47:25;12.27;;;2.78;;
76576;SDS011;65441;44.748;37.600;2024-02-14T11:49:53;11.07;;;3.15;;
76576;SDS011;65441;44.748;37.600;2024-02-14T11:52:23;6.70;;;2.72;;
76576;SDS011;65441;44.748;37.600;2024-02-14T11:54:53;10.30;;;2.55;;
76576;SDS011;65441;44.748;37.600;2024-02-14T11:57:24;7.00;;;2.65;;
76576;SDS011;65441;44.748;37.600;2024-02-14T11:59:53;6.50;;;2.60;;
76576;SDS011;65441;44.748;37.600;2024-02-14T12:02:21;8.02;;;2.33;;
76576;SDS011;65441;44.748;37.600;2024-02-14T12:04:50;9.07;;;2.70;;
76576;SDS011;65441;44.748;37.600;2024-02-14T12:07:19;10.98;;;3.08;;
76576;SDS011;65441;44.748;37.600;2024-02-14T12:09:48;11.05;;;2.78;;
76576;SDS011;65441;44.748;37.600;2024-02-14T12:12:17;8.68;;;2.63;;
76576;SDS011;65441;44.748;37.600;2024-02-14T12:14:46;7.53;;;2.65;;
76576;SDS011;65441;44.748;37.600;2024-02-14T12:17:15;7.00;;;2.63;;
76576;SDS011;65441;44.748;37.600;2024-02-14T12:19:45;8.60;;;3.00;;
76576;SDS011;65441;44.748;37.600;2024-02-14T12:22:15;8.65;;;2.83;;
76576;SDS011;65441;44.748;37.600;2024-02-14T12:24:45;7.35;;;2.63;;
76576;SDS011;65441;44.748;37.600;2024-02-14T12:27:16;7.93;;;2.45;;
76576;SDS011;65441;44.748;37.600;2024-02-14T12:29:46;8.90;;;2.88;;
76576;SDS011;65441;44.748;37.600;2024-02-14T12:32:16;9.88;;;2.78;;
76576;SDS011;65441;44.748;37.600;2024-02-14T12:34:45;7.07;;;2.67;;
76576;SDS011;65441;44.748;37.600;2024-02-14T12:37:14;10.25;;;2.75;;
76576;SDS011;65441;44.748;37.600;2024-02-14T12:39:43;6.63;;;2.85;;
76576;SDS011;65441;44.748;37.600;2024-02-14T12:42:12;8.85;;;2.50;;
76576;SDS011;65441;44.748;37.600;2024-02-14T12:44:40;8.75;;;2.83;;
76576;SDS011;65441;44.748;37.600;2024-02-14T12:47:10;8.27;;;2.72;;
76576;SDS011;65441;44.748;37.600;2024-02-14T12:49:38;7.97;;;2.50;;
76576;SDS011;65441;44.748;37.600;2024-02-14T12:52:06;7.75;;;2.67;;
76576;SDS011;65441;44.748;37.600;2024-02-14T12:54:34;7.50;;;2.95;;
76576;SDS011;65441;44.748;37.600;2024-02-14T12:57:03;10.02;;;2.58;;
76576;SDS011;65441;44.748;37.600;2024-02-14T12:59:32;6.15;;;2.65;;
76576;SDS011;65441;44.748;37.600;2024-02-14T13:02:01;6.75;;;2.60;;
76576;SDS011;65441;44.748;37.600;2024-02-14T13:04:34;9.07;;;3.00;;
76576;SDS011;65441;44.748;37.600;2024-02-14T13:07:02;10.32;;;3.03;;
76576;SDS011;65441;44.748;37.600;2024-02-14T13:09:31;10.95;;;2.67;;
76576;SDS011;65441;44.748;37.600;2024-02-14T13:11:59;7.65;;;2.30;;
76576;SDS011;65441;44.748;37.600;2024-02-14T13:14:27;9.13;;;3.25;;
76576;SDS011;65441;44.748;37.600;2024-02-14T13:16:58;13.73;;;3.20;;
76576;SDS011;65441;44.748;37.600;2024-02-14T13:19:26;9.77;;;3.55;;
76576;SDS011;65441;44.748;37.600;2024-02-14T13:21:56;7.15;;;2.80;;
76576;SDS011;65441;44.748;37.600;2024-02-14T13:24:24;10.57;;;3.63;;
76576;SDS011;65441;44.748;37.600;2024-02-14T13:26:52;9.57;;;3.60;;
76576;SDS011;65441;44.748;37.600;2024-02-14T13:29:23;10.82;;;3.53;;
76576;SDS011;65441;44.748;37.600;2024-02-14T13:31:51;10.90;;;3.53;;
76576;SDS011;65441;44.748;37.600;2024-02-14T13:34:19;9.02;;;3.90;;
76576;SDS011;65441;44.748;37.600;2024-02-14T13:36:48;9.40;;;3.70;;
76576;SDS011;65441;44.748;37.600;2024-02-14T13:39:18;10.63;;;3.78;;
76576;SDS011;65441;44.748;37.600;2024-02-14T13:41:46;14.48;;;3.90;;
76576;SDS011;65441;44.748;37.600;2024-02-14T13:44:14;9.13;;;3.78;;
76576;SDS011;65441;44.748;37.600;2024-02-14T13:46:43;12.13;;;4.22;;
76576;SDS011;65441;44.748;37.600;2024-02-14T13:49:12;10.98;;;4.20;;
76576;SDS011;65441;44.748;37.600;2024-02-14T13:51:44;13.38;;;5.00;;
76576;SDS011;65441;44.748;37.600;2024-02-14T13:54:12;11.55;;;4.70;;
76576;SDS011;65441;44.748;37.600;2024-02-14T13:56:42;10.40;;;4.50;;
76576;SDS011;65441;44.748;37.600;2024-02-14T13:59:10;11.25;;;4.22;;
76576;SDS011;65441;44.748;37.600;2024-02-14T14:01:38;10.75;;;4.85;;
76576;SDS011;65441;44.748;37.600;2024-02-14T14:04:06;15.85;;;5.18;;
76576;SDS011;65441;44.748;37.600;2024-02-14T14:06:35;12.43;;;4.55;;
76576;SDS011;65441;44.748;37.600;2024-02-14T14:09:03;11.50;;;4.75;;
76576;SDS011;65441;44.748;37.600;2024-02-14T14:11:33;12.57;;;5.03;;
76576;SDS011;65441;44.748;37.600;2024-02-14T14:14:03;10.18;;;4.53;;
76576;SDS011;65441;44.748;37.600;2024-02-14T14:16:31;12.30;;;5.95;;
76576;SDS011;65441;44.748;37.600;2024-02-14T14:19:00;14.38;;;5.00;;
76576;SDS011;65441;44.748;37.600;2024-02-14T14:21:28;12.18;;;5.45;;
76576;SDS011;65441;44.748;37.600;2024-02-14T14:23:56;9.77;;;4.88;;
76576;SDS011;65441;44.748;37.600;2024-02-14T14:26:24;15.43;;;5.75;;
76576;SDS011;65441;44.748;37.600;2024-02-14T14:28:53;13.38;;;5.80;;
76576;SDS011;65441;44.748;37.600;2024-02-14T14:31:22;12.27;;;5.47;;
76576;SDS011;65441;44.748;37.600;2024-02-14T14:33:50;14.23;;;6.07;;
76576;SDS011;65441;44.748;37.600;2024-02-14T14:36:19;15.30;;;5.78;;
76576;SDS011;65441;44.748;37.600;2024-02-14T14:38:48;14.05;;;6.20;;
76576;SDS011;65441;44.748;37.600;2024-02-14T14:41:17;15.45;;;6.07;;
76576;SDS011;65441;44.748;37.600;2024-02-14T14:43:45;20.08;;;6.80;;
76576;SDS011;65441;44.748;37.600;2024-02-14T14:46:15;14.13;;;6.53;;